Time;durP1;ratioP1;P1;durP2;ratioP2;P2;SDS_P1;SDS_P2;PMS_P1;PMS_P2;Temp;Humidity;BMP_temperature;BMP_pressure;BME280_temperature;BME280_humidity;BME280_pressure;Samples;Min_cycle;Max_cycle;Signal;HPM_P1;HPM_P2
2023/04/08 00:01:06;;;;;;;73.10;39.90;;;;;;;1.78;100.00;99189.58;270495;1266;23751;-87
2023/04/08 00:07:24;;;;;;;72.80;37.70;;;;;;;1.73;100.00;99193.22;271008;1266;22610;-87
2023/04/08 00:13:50;;;;;;;68.70;37.00;;;;;;;1.67;100.00;99197.77;272610;1266;23036;-89
2023/04/08 00:20:05;;;;;;;63.10;35.10;;;;;;;1.61;100.00;99204.76;271370;1266;22542;-86
2023/04/08 00:26:15;;;;;;;70.10;35.00;;;;;;;1.56;100.00;99207.34;272311;1266;22551;-90
2023/04/08 00:32:17;;;;;;;67.90;32.70;;;;;;;1.48;100.00;99210.67;270752;1267;22558;-89
2023/04/08 00:38:20;;;;;;;64.60;33.20;;;;;;;1.43;100.00;99208.65;271270;1266;22533;-88
2023/04/08 00:44:21;;;;;;;63.80;33.80;;;;;;;1.38;100.00;99208.63;271577;1266;22611;-87
2023/04/08 00:50:39;;;;;;;58.50;31.10;;;;;;;1.32;100.00;99209.77;273473;1257;23567;-89
2023/04/08 00:56:44;;;;;;;60.10;30.00;;;;;;;1.24;100.00;99212.50;273401;1266;22997;-87
2023/04/08 01:03:05;;;;;;;60.40;31.10;;;;;;;1.18;100.00;99218.59;273358;1266;22473;-88
2023/04/08 01:09:32;;;;;;;57.00;31.60;;;;;;;1.11;100.00;99226.63;273010;1262;23189;-88
2023/04/08 01:15:56;;;;;;;56.30;30.60;;;;;;;1.01;100.00;99228.17;273036;1271;22404;-83
2023/04/08 01:22:30;;;;;;;54.30;29.70;;;;;;;0.87;100.00;99230.35;273294;1267;22401;-87
2023/04/08 01:28:33;;;;;;;56.80;29.50;;;;;;;0.75;100.00;99227.30;271798;1270;22509;-87
2023/04/08 01:34:36;;;;;;;54.50;30.10;;;;;;;0.64;100.00;99232.55;270318;1272;22546;-87
2023/04/08 01:40:38;;;;;;;61.80;32.30;;;;;;;0.52;100.00;99234.41;270945;1266;22628;-87
2023/04/08 01:47:05;;;;;;;58.20;31.40;;;;;;;0.41;100.00;99242.45;270979;1256;22543;-89
2023/04/08 01:53:11;;;;;;;;;;;;;;;0.27;100.00;99250.61;271317;1266;22487;-88
2023/04/08 01:59:15;;;;;;;66.60;35.60;;;;;;;0.20;100.00;99253.30;273864;1266;23374;-88
2023/04/08 02:06:05;;;;;;;64.00;32.10;;;;;;;0.18;100.00;99259.80;272132;1266;22369;-88
2023/04/08 02:12:07;;;;;;;68.80;34.10;;;;;;;0.22;100.00;99260.58;270530;1267;25425;-87
2023/04/08 02:18:31;;;;;;;74.50;35.80;;;;;;;0.23;100.00;99259.05;270812;1266;24183;-87
2023/04/08 02:24:43;;;;;;;70.60;36.60;;;;;;;0.19;100.00;99267.38;270346;1266;22586;-87
2023/04/08 02:31:45;;;;;;;68.50;33.30;;;;;;;0.14;100.00;99267.63;270488;1266;22552;-87
2023/04/08 02:37:54;;;;;;;66.90;33.50;;;;;;;0.04;100.00;99267.62;271508;1253;22553;-88
2023/04/08 02:44:11;;;;;;;60.60;30.00;;;;;;;-0.06;100.00;99272.66;270306;1266;23719;-86
2023/04/08 02:50:18;;;;;;;63.30;32.10;;;;;;;-0.07;100.00;99276.45;270396;1266;22526;-87
2023/04/08 02:56:20;;;;;;;74.50;33.90;;;;;;;-0.02;100.00;99275.80;269875;1268;25488;-88
2023/04/08 03:02:22;;;;;;;63.90;31.20;;;;;;;0.02;100.00;99279.98;270386;1259;22540;-88
2023/04/08 03:08:23;;;;;;;62.90;31.60;;;;;;;0.04;100.00;99285.64;270707;1266;25350;-86
2023/04/08 03:14:25;;;;;;;59.60;29.90;;;;;;;0.07;100.00;99289.54;272551;1270;22436;-88
2023/04/08 03:20:27;;;;;;;57.70;30.00;;;;;;;0.09;100.00;99292.71;274165;1266;22205;-89
2023/04/08 03:26:29;;;;;;;57.20;29.20;;;;;;;0.11;100.00;99295.38;271341;1266;22598;-86
2023/04/08 03:32:41;;;;;;;55.60;29.20;;;;;;;0.12;100.00;99292.54;270580;1266;22507;-87
2023/04/08 03:38:43;;;;;;;55.80;29.40;;;;;;;0.11;100.00;99301.17;270736;1266;24234;-86
2023/04/08 03:44:45;;;;;;;55.90;28.70;;;;;;;0.11;100.00;99307.21;272718;1254;22929;-87
2023/04/08 03:51:26;;;;;;;57.20;28.10;;;;;;;0.11;100.00;99312.28;272983;1266;22508;-88
2023/04/08 03:57:48;;;;;;;61.60;31.40;;;;;;;0.13;100.00;99316.27;272417;1253;23242;-88
2023/04/08 04:03:52;;;;;;;55.00;28.60;;;;;;;0.17;100.00;99317.11;271171;1266;22510;-88
2023/04/08 04:09:56;;;;;;;57.30;28.50;;;;;;;0.17;100.00;99318.34;270852;1267;22472;-87
2023/04/08 04:15:57;;;;;;;50.40;26.90;;;;;;;0.12;100.00;99328.30;272977;1266;22473;-87
2023/04/08 04:21:58;;;;;;;52.80;27.60;;;;;;;0.07;100.00;99338.68;273167;1266;22606;-86
2023/04/08 04:28:19;;;;;;;46.50;27.70;;;;;;;0.02;100.00;99341.79;270797;1266;22543;-87
2023/04/08 04:34:43;;;;;;;49.90;26.50;;;;;;;-0.04;100.00;99343.23;270618;1266;22554;-87
2023/04/08 04:40:46;;;;;;;50.70;26.40;;;;;;;-0.10;100.00;99352.02;271088;1266;24185;-87
2023/04/08 04:46:48;;;;;;;50.50;26.30;;;;;;;-0.14;100.00;99361.61;271468;1266;23667;-86
2023/04/08 04:52:49;;;;;;;48.10;25.20;;;;;;;-0.10;100.00;99372.26;271796;1266;22178;-87
2023/04/08 04:58:50;;;;;;;50.10;26.00;;;;;;;-0.03;100.00;99380.46;273455;1267;22197;-86
2023/04/08 05:04:54;;;;;;;55.80;27.60;;;;;;;0.05;100.00;99381.94;271576;1266;23810;-86
2023/04/08 05:10:56;;;;;;;55.00;27.40;;;;;;;0.14;100.00;99389.95;271870;1266;22532;-87
2023/04/08 05:16:57;;;;;;;56.10;28.30;;;;;;;0.24;100.00;99391.29;271535;1266;22305;-88
2023/04/08 05:23:19;;;;;;;52.50;28.40;;;;;;;0.33;100.00;99395.86;273003;1265;22346;-86
2023/04/08 05:29:21;;;;;;;48.10;26.00;;;;;;;0.42;100.00;99400.03;273167;1266;22344;-87
2023/04/08 05:35:23;;;;;;;45.90;24.40;;;;;;;0.53;100.00;99407.89;274150;1267;22189;-88
2023/04/08 05:41:27;;;;;;;43.50;24.30;;;;;;;0.62;100.00;99414.56;273610;1266;22728;-87
2023/04/08 05:47:54;;;;;;;41.70;23.40;;;;;;;0.70;100.00;99423.14;272437;1266;22630;-86
2023/04/08 05:54:20;;;;;;;42.90;23.50;;;;;;;0.79;100.00;99423.45;273907;1266;22222;-87
2023/04/08 06:01:11;;;;;;;38.60;22.20;;;;;;;0.93;100.00;99427.54;274138;1269;23239;-87
2023/04/08 06:07:57;;;;;;;38.90;21.90;;;;;;;1.19;100.00;99434.77;273204;1269;23530;-86
2023/04/08 06:14:19;;;;;;;40.70;22.20;;;;;;;1.47;100.00;99435.98;272281;1267;22324;-87
2023/04/08 06:20:20;;;;;;;36.40;21.40;;;;;;;1.62;100.00;99450.10;273579;1266;23051;-87
2023/04/08 06:26:22;;;;;;;36.00;21.80;;;;;;;1.82;100.00;99458.96;272750;1264;22329;-85
2023/04/08 06:32:46;;;;;;;35.50;19.90;;;;;;;2.11;100.00;99464.63;274050;1266;22339;-87
2023/04/08 06:38:47;;;;;;;37.20;21.90;;;;;;;2.33;100.00;99473.48;274024;1267;22289;-86
2023/04/08 06:45:07;;;;;;;34.10;20.80;;;;;;;2.43;100.00;99476.77;272393;1266;22512;-87
2023/04/08 06:51:20;;;;;;;37.00;22.20;;;;;;;2.42;100.00;99484.46;271808;1267;22609;-86
2023/04/08 06:57:22;;;;;;;27.00;16.80;;;;;;;2.68;100.00;99488.03;271966;1270;22555;-89
2023/04/08 07:03:26;;;;;;;29.40;18.20;;;;;;;3.11;100.00;99484.85;271970;1261;23372;-87
2023/04/08 07:09:56;;;;;;;25.80;17.00;;;;;;;3.60;100.00;99484.63;270811;1260;22538;-86
2023/04/08 07:16:24;;;;;;;24.00;16.10;;;;;;;3.76;100.00;99490.77;271647;1267;25455;-86
2023/04/08 07:22:27;;;;;;;28.40;19.10;;;;;;;3.92;100.00;99492.67;271728;1267;22551;-88
2023/04/08 07:28:39;;;;;;;25.70;16.90;;;;;;;4.33;100.00;99491.39;272599;1256;22334;-86
2023/04/08 07:34:45;;;;;;;23.60;16.10;;;;;;;4.56;100.00;99488.91;273970;1267;22951;-87
2023/04/08 07:40:47;;;;;;;18.30;11.40;;;;;;;4.80;100.00;99496.48;272994;1267;22401;-88
2023/04/08 07:46:52;;;;;;;21.60;14.50;;;;;;;5.16;100.00;99506.27;271966;1266;22553;-88
2023/04/08 07:53:03;;;;;;;23.10;15.80;;;;;;;5.28;100.00;99509.16;266880;1266;5993064;-86
2023/04/08 07:59:33;;;;;;;20.90;14.10;;;;;;;5.59;100.00;99509.15;270833;1267;22723;-87
2023/04/08 08:05:36;;;;;;;23.90;15.20;;;;;;;5.70;100.00;99513.70;270285;1266;22550;-90
2023/04/08 08:11:37;;;;;;;18.20;13.40;;;;;;;6.02;100.00;99520.63;270995;1266;22575;-88
2023/04/08 08:17:46;;;;;;;21.00;13.20;;;;;;;5.99;100.00;99524.00;271564;1260;22205;-89
2023/04/08 08:24:48;;;;;;;;;;;;;;;;;;;;;
2023/04/08 08:32:03;;;;;;;20.30;13.80;;;;;;;6.73;100.00;99514.27;271844;1272;22542;-88
2023/04/08 08:38:12;;;;;;;16.30;11.50;;;;;;;7.28;100.00;99515.67;271359;1267;22565;-90
2023/04/08 08:44:15;;;;;;;14.30;11.50;;;;;;;7.56;100.00;99525.68;272448;1270;25275;-87
2023/04/08 08:50:49;;;;;;;14.30;10.30;;;;;;;7.42;100.00;99531.70;272516;1268;23202;-87
2023/04/08 08:57:23;;;;;;;16.30;12.00;;;;;;;6.89;100.00;99531.48;271712;1267;22551;-87
2023/04/08 09:03:37;;;;;;;14.70;10.80;;;;;;;6.79;100.00;99530.75;271355;1267;22561;-86
2023/04/08 09:10:09;;;;;;;14.60;11.30;;;;;;;7.50;100.00;99537.04;271303;1267;22556;-90
2023/04/08 09:16:45;;;;;;;15.90;11.00;;;;;;;8.01;100.00;99542.81;271276;1266;23299;-87
2023/04/08 09:23:00;;;;;;;16.90;12.30;;;;;;;8.48;100.00;99543.46;271600;1267;22507;-89
2023/04/08 09:29:10;;;;;;;20.70;13.70;;;;;;;8.79;100.00;99547.77;271247;1256;23068;-88
2023/04/08 09:43:25;;;;;;;23.70;14.10;;;;;;;9.89;95.79;99558.31;271059;1267;23237;-88
2023/04/08 09:50:02;;;;;;;18.10;12.80;;;;;;;10.04;96.67;99564.76;271850;1267;22611;-86
2023/04/08 09:56:50;;;;;;;16.50;10.80;;;;;;;10.00;94.52;99570.05;271425;1267;22524;-89
2023/04/08 10:03:34;;;;;;;21.60;14.50;;;;;;;9.27;92.92;99567.44;272055;1267;22535;-86
2023/04/08 10:09:41;;;;;;;21.70;14.40;;;;;;;9.04;93.59;99566.63;270650;1267;22625;-85
2023/04/08 10:16:32;;;;;;;23.00;15.50;;;;;;;9.32;92.71;99559.75;271318;1267;22510;-89
2023/04/08 10:22:33;;;;;;;22.60;15.20;;;;;;;9.67;90.82;99568.66;270917;1270;22563;-88
2023/04/08 10:28:48;;;;;;;23.90;15.50;;;;;;;9.33;89.98;99567.27;271872;1266;22652;-90
2023/04/08 10:34:52;;;;;;;25.10;17.10;;;;;;;9.08;89.71;99570.15;272043;1251;22544;-89
2023/04/08 10:41:21;;;;;;;28.50;19.40;;;;;;;8.69;88.30;99573.92;272149;1267;22622;-86
2023/04/08 10:47:44;;;;;;;26.80;17.40;;;;;;;8.13;87.78;99579.20;271924;1267;23337;-89
2023/04/08 10:55:04;;;;;;;27.90;18.30;;;;;;;7.67;87.62;99593.83;271758;1266;22505;-89
2023/04/08 11:01:07;;;;;;;27.60;19.10;;;;;;;7.18;87.67;99602.71;272651;1266;23323;-87
2023/04/08 11:07:22;;;;;;;28.80;18.70;;;;;;;6.75;87.48;99603.63;271933;1267;23859;-90
2023/04/08 11:14:43;;;;;;;27.80;17.70;;;;;;;6.46;87.89;99603.65;272375;1267;22360;-88
2023/04/08 11:21:10;;;;;;;32.50;19.90;;;;;;;6.32;88.13;99595.61;271303;1257;24260;-86
2023/04/08 11:27:26;;;;;;;32.10;21.20;;;;;;;6.30;88.29;99592.71;272594;1266;22519;-87
2023/04/08 11:33:37;;;;;;;31.90;21.20;;;;;;;6.39;88.70;99590.88;272527;1266;22544;-87
2023/04/08 11:40:19;;;;;;;36.00;23.90;;;;;;;6.50;88.56;99587.63;272251;1267;22485;-86
2023/04/08 11:46:21;;;;;;;31.20;20.60;;;;;;;6.47;88.17;99586.27;270783;1264;22576;-87
2023/04/08 11:52:49;;;;;;;36.40;23.50;;;;;;;6.32;88.24;99583.33;270177;1267;22603;-87
2023/04/08 11:59:10;;;;;;;38.40;24.10;;;;;;;6.20;88.35;99587.45;270926;1267;22599;-90
2023/04/08 12:05:11;;;;;;;31.20;20.00;;;;;;;6.11;88.32;99589.92;271320;1266;22847;-88
2023/04/08 12:11:14;;;;;;;35.80;22.50;;;;;;;5.96;88.54;99591.72;272046;1266;22555;-88
2023/04/08 12:18:05;;;;;;;37.80;24.70;;;;;;;5.93;89.29;99585.79;271868;1266;23760;-86
2023/04/08 12:24:08;;;;;;;42.50;26.50;;;;;;;5.99;89.49;99580.28;272796;1266;23495;-87
2023/04/08 12:30:40;;;;;;;45.40;26.70;;;;;;;6.04;89.28;99578.39;271990;1266;22476;-87
2023/04/08 12:36:43;;;;;;;43.70;25.80;;;;;;;6.09;89.48;99577.40;272761;1266;22523;-87
2023/04/08 12:42:47;;;;;;;45.30;26.70;;;;;;;6.13;89.54;99580.66;271230;1267;22199;-89
2023/04/08 12:48:49;;;;;;;47.00;27.50;;;;;;;6.10;89.95;99584.52;273289;1261;22314;-88
2023/04/08 12:54:59;;;;;;;40.10;24.70;;;;;;;6.07;90.13;99584.96;273226;1266;22641;-90
2023/04/08 13:01:42;;;;;;;35.20;19.60;;;;;;;6.00;89.97;99582.80;273416;1266;23024;-87
2023/04/08 13:08:00;;;;;;;56.50;33.80;;;;;;;5.95;90.17;99586.88;273008;1266;22324;-88
2023/04/08 13:14:19;;;;;;;31.40;18.90;;;;;;;5.93;90.48;99586.60;273391;1266;23522;-87
2023/04/08 13:20:24;;;;;;;30.40;18.60;;;;;;;5.97;91.00;99586.05;273658;1266;22344;-89
2023/04/08 13:26:26;;;;;;;39.90;22.90;;;;;;;6.03;91.35;99584.89;272089;1266;22566;-89
2023/04/08 13:32:31;;;;;;;37.70;22.60;;;;;;;6.05;91.26;99581.55;271398;1266;22529;-90
2023/04/08 13:38:33;;;;;;;39.40;22.20;;;;;;;6.10;91.74;99579.94;270354;1266;22522;-87
2023/04/08 13:44:58;;;;;;;45.40;24.10;;;;;;;6.18;91.67;99574.26;270730;1266;25396;-87
2023/04/08 13:51:00;;;;;;;45.20;22.00;;;;;;;6.31;91.78;99571.40;271090;1256;25447;-88
2023/04/08 13:57:20;;;;;;;42.60;22.20;;;;;;;6.46;92.22;99568.14;271154;1266;22580;-87
2023/04/08 14:03:41;;;;;;;38.50;21.10;;;;;;;6.62;92.02;99569.02;271726;1259;22915;-88
2023/04/08 14:10:08;;;;;;;37.40;20.70;;;;;;;6.70;92.06;99568.98;270737;1259;22536;-88
2023/04/08 14:16:35;;;;;;;;;;;;;;;6.77;92.21;99566.45;271249;1266;23847;-88
2023/04/08 14:23:29;;;;;;;29.00;17.80;;;;;;;6.91;92.28;99562.87;271054;1265;22330;-88
2023/04/08 14:29:37;;;;;;;32.20;19.60;;;;;;;7.08;92.18;99557.66;271233;1265;22379;-89
2023/04/08 14:35:39;;;;;;;29.60;18.10;;;;;;;7.24;92.23;99556.92;271624;1253;22986;-87
2023/04/08 14:41:50;;;;;;;32.30;20.20;;;;;;;7.26;91.63;99563.46;271164;1253;23806;-86
2023/04/08 14:48:02;;;;;;;35.60;21.00;;;;;;;7.12;91.40;99567.76;270477;1266;22721;-86
2023/04/08 14:54:04;;;;;;;36.90;21.10;;;;;;;7.05;91.44;99572.95;270679;1257;22346;-89
2023/04/08 15:00:07;;;;;;;33.80;20.40;;;;;;;6.92;91.03;99573.37;271491;1266;22546;-88
2023/04/08 15:06:30;;;;;;;37.80;22.50;;;;;;;6.83;91.31;99576.84;270846;1266;22549;-86
2023/04/08 15:12:40;;;;;;;37.50;22.20;;;;;;;6.82;91.41;99575.80;271488;1266;22553;-87
2023/04/08 15:19:19;;;;;;;;;;;;;;;6.76;91.46;99575.73;271706;1266;23690;-87
2023/04/08 15:25:54;;;;;;;37.20;20.60;;;;;;;6.73;91.55;99574.85;272213;1266;22530;-87
2023/04/08 15:31:56;;;;;;;38.20;20.20;;;;;;;6.71;91.53;99577.66;272048;1266;22511;-87
2023/04/08 15:38:12;;;;;;;43.70;24.00;;;;;;;6.72;91.63;99572.59;271685;1266;22534;-86
2023/04/08 15:44:31;;;;;;;34.50;21.10;;;;;;;6.77;91.59;99576.16;272326;1266;22687;-86
2023/04/08 15:50:45;;;;;;;36.30;21.10;;;;;;;6.81;91.36;99576.05;272147;1266;22299;-86
2023/04/08 15:56:52;;;;;;;36.90;21.10;;;;;;;6.78;91.23;99568.65;271503;1266;25287;-87
2023/04/08 16:02:53;;;;;;;36.90;21.30;;;;;;;6.82;91.31;99572.67;272547;1262;22369;-88
2023/04/08 16:09:38;;;;;;;37.50;21.50;;;;;;;6.85;91.19;99577.30;272102;1266;22528;-87
2023/04/08 16:16:50;;;;;;;37.50;22.30;;;;;;;6.80;90.94;99580.95;272819;1266;22552;-87
2023/04/08 16:22:56;;;;;;;43.70;22.60;;;;;;;6.74;91.00;99585.92;271911;1266;24859;-86
2023/04/08 16:29:16;;;;;;;42.00;24.20;;;;;;;6.68;91.05;99589.05;272253;1259;22645;-85
2023/04/08 16:35:19;;;;;;;38.50;23.00;;;;;;;6.63;91.06;99587.40;272440;1266;22418;-86
2023/04/08 16:41:27;;;;;;;39.90;22.70;;;;;;;6.54;91.07;99586.30;273008;1266;22605;-87
2023/04/08 16:47:28;;;;;;;40.30;23.10;;;;;;;6.44;91.14;99589.50;271380;1264;24232;-85
2023/04/08 16:53:55;;;;;;;41.90;24.10;;;;;;;6.34;91.36;99597.29;270849;1266;22675;-86
2023/04/08 17:00:14;;;;;;;38.70;24.00;;;;;;;6.17;91.63;99602.50;270978;1257;22536;-86
2023/04/08 17:06:16;;;;;;;39.50;23.20;;;;;;;6.05;91.93;99609.56;271563;1266;22597;-86
2023/04/08 17:12:59;;;;;;;37.90;22.60;;;;;;;5.99;92.22;99616.54;273128;1262;22656;-86
2023/04/08 17:19:07;;;;;;;40.60;23.10;;;;;;;5.91;92.36;99618.41;273202;1266;22454;-88
2023/04/08 17:25:30;;;;;;;40.10;23.70;;;;;;;5.82;92.55;99624.81;272309;1266;22449;-86
2023/04/08 17:31:32;;;;;;;43.50;24.80;;;;;;;5.76;93.10;99627.95;272079;1264;22320;-86
2023/04/08 17:38:19;;;;;;;50.60;27.50;;;;;;;5.70;93.23;99630.83;272149;1257;23519;-88
2023/04/08 17:44:40;;;;;;;;;;;;;;;;;;;;;
2023/04/08 17:50:53;;;;;;;;;;;;;;;;;;;;;
2023/04/08 17:57:09;;;;;;;49.70;29.10;;;;;;;5.53;94.03;99654.24;272308;1262;22592;-87
2023/04/08 18:03:11;;;;;;;46.90;28.70;;;;;;;5.44;94.29;99652.39;271968;1266;22586;-87
2023/04/08 18:09:39;;;;;;;104.90;57.00;;;;;;;5.30;94.21;99657.52;271479;1266;22929;-87
2023/04/08 18:15:45;;;;;;;67.30;37.50;;;;;;;5.19;95.03;99657.01;271974;1266;22553;-86
2023/04/08 18:21:54;;;;;;;55.90;30.40;;;;;;;5.14;95.22;99664.69;271747;1266;22658;-86
2023/04/08 18:28:07;;;;;;;52.70;28.50;;;;;;;5.02;95.17;99665.23;271388;1257;22550;-86
2023/04/08 18:34:11;;;;;;;57.30;29.80;;;;;;;4.90;95.45;99678.99;271605;1256;22382;-86
2023/04/08 18:40:44;;;;;;;72.20;35.10;;;;;;;4.83;96.05;99683.36;271568;1266;27718;-86
2023/04/08 18:47:07;;;;;;;67.50;33.80;;;;;;;4.79;96.03;99683.30;271739;1266;23329;-86
2023/04/08 18:53:30;;;;;;;73.80;35.70;;;;;;;4.68;96.58;99682.06;272559;1266;22766;-86
2023/04/08 18:59:32;;;;;;;102.70;46.10;;;;;;;4.69;97.08;99685.98;272705;1266;23041;-87
2023/04/08 19:05:36;;;;;;;100.60;46.50;;;;;;;4.67;97.25;99683.69;274116;1267;22321;-87
2023/04/08 19:12:05;;;;;;;104.60;48.80;;;;;;;4.64;97.56;99684.65;264577;1266;10001964;-87
2023/04/08 19:18:32;;;;;;;96.00;45.30;;;;;;;4.56;97.60;99692.02;271222;1266;22882;-86
2023/04/08 19:24:52;;;;;;;92.10;46.90;;;;;;;4.45;97.81;99689.99;274293;1265;22367;-87
2023/04/08 19:31:02;;;;;;;108.10;53.70;;;;;;;4.43;98.35;99692.67;274024;1262;22418;-87
2023/04/08 19:37:27;;;;;;;82.90;43.60;;;;;;;4.43;98.56;99693.44;274314;1266;22392;-87
2023/04/08 19:43:32;;;;;;;96.00;47.70;;;;;;;4.30;98.27;99694.21;273844;1256;22687;-86
2023/04/08 19:49:58;;;;;;;97.40;48.80;;;;;;;4.23;99.05;99690.86;273657;1266;22395;-86
2023/04/08 19:56:00;;;;;;;89.20;47.00;;;;;;;4.24;99.27;99693.19;273757;1266;278896;-87
2023/04/08 20:02:15;;;;;;;;;;;;;;;;;;;;;
2023/04/08 20:08:44;;;;;;;87.80;44.90;;;;;;;4.35;100.00;99692.60;274040;1266;22437;-86
2023/04/08 20:15:28;;;;;;;82.50;44.20;;;;;;;4.36;100.00;99693.59;274138;1267;22194;-87
2023/04/08 20:21:31;;;;;;;74.00;41.10;;;;;;;4.27;99.78;99700.48;273149;1266;22682;-86
2023/04/08 20:27:34;;;;;;;80.70;41.90;;;;;;;4.16;99.92;99701.14;273140;1266;22550;-87
2023/04/08 20:33:43;;;;;;;84.80;42.80;;;;;;;4.13;99.99;99696.68;274131;1266;22151;-87
2023/04/08 20:40:05;;;;;;;86.80;46.50;;;;;;;4.07;100.00;99687.48;273991;1266;22361;-86
2023/04/08 20:46:08;;;;;;;95.80;49.50;;;;;;;4.08;100.00;99682.79;274263;1266;22440;-86
2023/04/08 20:52:12;;;;;;;95.90;48.60;;;;;;;4.02;100.00;99684.48;273788;1266;22222;-87
2023/04/08 20:58:13;;;;;;;95.70;49.40;;;;;;;3.95;100.00;99685.54;274068;1266;22404;-87
2023/04/08 21:04:31;;;;;;;88.60;46.50;;;;;;;3.88;100.00;99686.95;271715;1266;22424;-87
2023/04/08 21:10:34;;;;;;;100.60;50.20;;;;;;;3.78;100.00;99689.66;274093;1266;22384;-86
2023/04/08 21:16:49;;;;;;;93.40;48.20;;;;;;;3.70;100.00;99693.13;273154;1267;22528;-87
2023/04/08 21:23:37;;;;;;;98.40;51.30;;;;;;;3.61;100.00;99692.73;272402;1265;22572;-87
2023/04/08 21:29:38;;;;;;;92.30;47.10;;;;;;;3.58;100.00;99686.92;272497;1263;22351;-86
2023/04/08 21:35:41;;;;;;;108.40;57.20;;;;;;;3.54;100.00;99695.04;273854;1256;23261;-86
2023/04/08 21:42:00;;;;;;;113.80;59.40;;;;;;;3.51;100.00;99697.45;271246;1256;22508;-87
2023/04/08 21:48:01;;;;;;;133.80;64.40;;;;;;;3.49;100.00;99700.52;270858;1263;24209;-86
2023/04/08 21:54:16;;;;;;;124.90;66.30;;;;;;;3.45;100.00;99699.06;270941;1266;22528;-87
2023/04/08 22:00:39;;;;;;;122.40;63.80;;;;;;;3.43;100.00;99696.10;270432;1266;22549;-85
2023/04/08 22:06:41;;;;;;;121.50;62.60;;;;;;;3.30;100.00;99699.36;270603;1266;25281;-86
2023/04/08 22:12:44;;;;;;;119.20;61.60;;;;;;;3.29;100.00;99694.20;271828;1266;22448;-86
2023/04/08 22:18:50;;;;;;;119.50;62.70;;;;;;;3.31;100.00;99692.68;274183;1266;22395;-86
2023/04/08 22:25:15;;;;;;;112.50;58.00;;;;;;;3.30;100.00;99690.42;273013;1267;22372;-87
2023/04/08 22:31:19;;;;;;;116.90;61.80;;;;;;;3.26;100.00;99686.73;271643;1269;23905;-85
2023/04/08 22:37:40;;;;;;;116.50;60.30;;;;;;;3.26;100.00;99688.87;271324;1266;24219;-85
2023/04/08 22:44:02;;;;;;;127.10;65.70;;;;;;;3.17;100.00;99695.03;272047;1261;22339;-86
2023/04/08 22:50:41;;;;;;;122.90;63.10;;;;;;;3.05;100.00;99701.04;270510;1269;22564;-85
2023/04/08 22:57:00;;;;;;;127.50;63.00;;;;;;;3.01;100.00;99698.85;271552;1271;22578;-85
2023/04/08 23:03:03;;;;;;;124.00;61.70;;;;;;;3.05;100.00;99697.82;270419;1266;22512;-86
2023/04/08 23:09:05;;;;;;;126.80;63.90;;;;;;;3.13;100.00;99702.11;270214;1258;22534;-86
2023/04/08 23:15:26;;;;;;;116.60;62.50;;;;;;;3.17;100.00;99697.27;270101;1266;25307;-86
2023/04/08 23:21:27;;;;;;;109.10;57.50;;;;;;;3.19;100.00;99693.89;271027;1267;22503;-85
2023/04/08 23:28:16;;;;;;;119.50;62.80;;;;;;;3.16;100.00;99689.32;270856;1267;23915;-86
2023/04/08 23:34:19;;;;;;;110.80;58.20;;;;;;;3.10;100.00;99685.98;271062;1267;22559;-85
2023/04/08 23:40:42;;;;;;;135.00;63.20;;;;;;;3.09;100.00;99681.93;271066;1268;23044;-86
2023/04/08 23:46:43;;;;;;;115.90;61.20;;;;;;;3.11;100.00;99678.20;270577;1266;22527;-87
2023/04/08 23:52:48;;;;;;;116.20;59.70;;;;;;;3.12;100.00;99677.27;270609;1266;24116;-87
2023/04/08 23:58:49;;;;;;;126.10;64.80;;;;;;;3.06;100.00;99682.64;271120;1266;24365;-86
